Time;durP1;ratioP1;P1;durP2;ratioP2;P2;SDS_P1;SDS_P2;PMS_P1;PMS_P2;Temp;Humidity;BMP_temperature;BMP_pressure;BME280_temperature;BME280_humidity;BME280_pressure;Samples;Min_cycle;Max_cycle;Signal;HPM_P1;HPM_P2
2023/03/18 00:00:18;;;;;;;6.17;3.50;;;9.60;99.90;;;;;;5034385;28;20178;-41
2023/03/18 00:02:45;;;;;;;5.57;3.80;;;9.60;99.90;;;;;;5016684;28;20244;-37
2023/03/18 00:05:11;;;;;;;8.00;4.30;;;9.60;99.90;;;;;;5015747;28;20233;-37
2023/03/18 00:07:38;;;;;;;4.73;3.90;;;9.60;99.90;;;;;;5015634;28;20198;-39
2023/03/18 00:10:05;;;;;;;4.83;3.63;;;9.60;99.90;;;;;;5016917;28;20195;-41
2023/03/18 00:12:32;;;;;;;5.13;3.87;;;9.50;99.90;;;;;;5033903;28;20210;-38
2023/03/18 00:14:58;;;;;;;5.33;3.60;;;9.50;99.90;;;;;;5008800;28;20202;-37
2023/03/18 00:17:24;;;;;;;5.17;3.33;;;9.50;99.90;;;;;;5002335;28;20186;-38
2023/03/18 00:19:50;;;;;;;6.67;4.00;;;9.50;99.90;;;;;;5017954;28;20189;-38
2023/03/18 00:22:16;;;;;;;5.17;3.67;;;9.50;99.90;;;;;;5001328;28;20190;-38
2023/03/18 00:24:42;;;;;;;6.33;3.47;;;9.50;99.90;;;;;;5033163;28;20201;-37
2023/03/18 00:27:08;;;;;;;6.00;3.90;;;9.50;99.90;;;;;;5032513;28;20174;-38
2023/03/18 00:29:34;;;;;;;4.30;3.60;;;9.50;99.90;;;;;;5016145;28;20206;-37
2023/03/18 00:32:00;;;;;;;5.57;3.80;;;9.50;99.90;;;;;;5032279;28;20206;-37
2023/03/18 00:34:26;;;;;;;5.47;3.43;;;9.50;99.90;;;;;;5016216;28;20206;-37
2023/03/18 00:36:55;;;;;;;7.17;4.07;;;9.50;99.90;;;;;;5015915;28;20170;-38
2023/03/18 00:39:25;;;;;;;6.40;3.80;;;9.50;99.90;;;;;;5032498;28;20174;-37
2023/03/18 00:41:54;;;;;;;6.63;4.07;;;9.50;99.90;;;;;;5016292;28;20229;-37
2023/03/18 00:44:19;;;;;;;6.27;3.70;;;9.40;99.90;;;;;;5022218;28;20187;-37
2023/03/18 00:46:46;;;;;;;7.77;5.03;;;9.40;99.90;;;;;;4999429;28;20197;-38
2023/03/18 00:49:13;;;;;;;7.70;4.13;;;9.40;99.90;;;;;;5033614;28;20225;-37
2023/03/18 00:51:40;;;;;;;6.30;3.93;;;9.50;99.90;;;;;;5015835;28;20245;-37
2023/03/18 00:54:09;;;;;;;5.80;3.40;;;9.50;99.90;;;;;;5031969;28;20214;-37
2023/03/18 00:56:37;;;;;;;5.23;3.40;;;9.50;99.90;;;;;;5015644;28;20202;-37
2023/03/18 00:59:05;;;;;;;5.33;3.23;;;9.50;99.90;;;;;;5015483;28;20217;-37
2023/03/18 01:01:31;;;;;;;4.07;3.27;;;9.60;99.90;;;;;;5015615;28;20559;-38
2023/03/18 01:03:59;;;;;;;4.87;3.20;;;9.60;99.90;;;;;;5015804;28;20289;-37
2023/03/18 01:06:29;;;;;;;7.43;3.33;;;9.60;99.90;;;;;;5031604;28;20182;-38
2023/03/18 01:08:56;;;;;;;7.33;4.23;;;9.60;99.90;;;;;;5015636;28;20179;-37
2023/03/18 01:11:23;;;;;;;6.63;3.80;;;9.60;99.90;;;;;;5015289;28;20260;-37
2023/03/18 01:13:50;;;;;;;6.93;3.90;;;9.50;99.90;;;;;;5018347;28;20233;-37
2023/03/18 01:16:16;;;;;;;6.17;3.60;;;9.50;99.90;;;;;;4998338;28;20182;-37
2023/03/18 01:18:42;;;;;;;6.23;3.33;;;9.40;99.90;;;;;;5015432;28;20265;-37
2023/03/18 01:21:09;;;;;;;4.90;3.40;;;9.40;99.90;;;;;;5014944;28;20302;-37
2023/03/18 01:23:41;;;;;;;6.07;3.23;;;9.40;99.90;;;;;;5015230;28;20185;-37
2023/03/18 01:26:09;;;;;;;7.00;3.33;;;9.30;99.90;;;;;;5015304;28;20186;-37
2023/03/18 01:28:37;;;;;;;4.13;3.00;;;9.30;99.90;;;;;;5014571;28;20187;-39
2023/03/18 01:31:03;;;;;;;5.97;3.20;;;9.20;99.90;;;;;;5014600;28;20198;-38
2023/03/18 01:33:29;;;;;;;4.50;3.10;;;9.20;99.90;;;;;;5031413;28;20199;-37
2023/03/18 01:35:58;;;;;;;4.23;3.13;;;9.20;99.90;;;;;;5015027;28;20245;-37
2023/03/18 01:38:30;;;;;;;5.77;3.20;;;9.20;99.90;;;;;;5015478;28;20232;-37
2023/03/18 01:41:04;;;;;;;4.33;3.03;;;9.20;99.90;;;;;;5030222;28;20198;-38
2023/03/18 01:43:35;;;;;;;5.53;3.13;;;9.20;99.90;;;;;;5030815;28;20201;-39
2023/03/18 01:46:29;;;;;;;4.97;3.37;;;9.10;99.90;;;;;;5009484;28;20265;-37
2023/03/18 01:48:56;;;;;;;4.33;3.13;;;9.20;99.90;;;;;;5030813;28;20262;-37
2023/03/18 01:51:25;;;;;;;6.27;3.27;;;9.20;99.90;;;;;;5030944;28;20277;-37
2023/03/18 01:53:52;;;;;;;3.80;3.00;;;9.20;99.90;;;;;;5031243;28;20278;-38
2023/03/18 01:56:19;;;;;;;4.03;2.90;;;9.20;99.90;;;;;;5030567;28;20182;-37
2023/03/18 01:58:50;;;;;;;5.27;3.03;;;9.20;99.90;;;;;;5014672;28;20179;-37
2023/03/18 02:01:36;;;;;;;4.03;3.00;;;9.20;99.90;;;;;;5014607;28;20222;-37
2023/03/18 02:04:07;;;;;;;4.53;2.90;;;9.20;99.90;;;;;;5014414;28;20187;-37
2023/03/18 02:06:33;;;;;;;6.10;3.33;;;9.10;99.90;;;;;;5030951;28;20415;-37
2023/03/18 02:09:00;;;;;;;7.50;3.30;;;9.10;99.90;;;;;;5014859;28;20182;-38
2023/03/18 02:11:37;;;;;;;5.80;3.27;;;9.00;99.90;;;;;;5030150;28;20210;-37
2023/03/18 02:14:04;;;;;;;6.00;3.40;;;9.00;99.90;;;;;;5018089;28;20229;-38
2023/03/18 02:16:38;;;;;;;6.30;3.20;;;8.90;99.90;;;;;;4999403;28;20175;-38
2023/03/18 02:19:15;;;;;;;5.60;3.10;;;8.90;99.90;;;;;;5030478;28;20174;-38
2023/03/18 02:22:23;;;;;;;4.57;3.00;;;8.70;99.90;;;;;;5030814;28;20214;-40
2023/03/18 02:25:20;;;;;;;5.50;3.00;;;8.80;99.90;;;;;;5005476;28;20190;-37
2023/03/18 02:27:54;;;;;;;5.30;2.93;;;8.80;99.90;;;;;;5014072;28;20171;-40
2023/03/18 02:30:27;;;;;;;4.13;2.80;;;8.70;99.90;;;;;;5030696;28;20273;-38
2023/03/18 02:32:57;;;;;;;5.47;2.83;;;8.70;99.90;;;;;;5013716;28;20217;-37
2023/03/18 02:35:24;;;;;;;3.20;2.90;;;8.70;99.90;;;;;;5014054;28;20187;-38
2023/03/18 02:37:51;;;;;;;4.53;3.00;;;8.70;99.90;;;;;;5014077;28;20297;-39
2023/03/18 02:40:24;;;;;;;6.90;3.17;;;8.70;99.90;;;;;;5013786;28;20178;-38
2023/03/18 02:42:50;;;;;;;4.73;3.13;;;8.70;99.90;;;;;;5013742;28;20331;-40
2023/03/18 02:45:43;;;;;;;4.47;3.07;;;8.70;99.90;;;;;;5005259;28;20202;-38
2023/03/18 02:48:16;;;;;;;5.23;3.00;;;8.70;99.90;;;;;;5029780;28;20186;-37
2023/03/18 02:50:42;;;;;;;6.00;3.57;;;8.70;99.90;;;;;;5030493;28;20232;-39
2023/03/18 02:53:11;;;;;;;4.37;3.10;;;8.70;99.90;;;;;;5030423;28;20202;-41
2023/03/18 02:55:37;;;;;;;5.90;3.50;;;8.70;99.90;;;;;;5013434;28;20170;-38
2023/03/18 02:58:04;;;;;;;5.07;3.50;;;8.70;99.90;;;;;;5029937;28;20200;-39
2023/03/18 03:00:32;;;;;;;4.37;3.17;;;8.60;99.90;;;;;;5028039;28;20195;-38
2023/03/18 03:02:58;;;;;;;5.00;3.50;;;8.60;99.90;;;;;;5030015;28;20186;-38
2023/03/18 03:05:25;;;;;;;5.77;3.30;;;8.60;99.90;;;;;;5013435;28;20202;-40
2023/03/18 03:07:51;;;;;;;3.93;3.10;;;8.60;99.90;;;;;;5013164;28;20321;-38
2023/03/18 03:10:18;;;;;;;6.33;3.10;;;8.50;99.90;;;;;;5013740;28;20194;-38
2023/03/18 03:12:46;;;;;;;5.60;3.40;;;8.50;99.90;;;;;;5029786;28;20216;-40
2023/03/18 03:15:14;;;;;;;6.50;3.33;;;8.40;99.90;;;;;;5004056;28;20241;-37
2023/03/18 03:17:47;;;;;;;4.80;3.20;;;8.30;99.90;;;;;;5029632;28;20174;-38
2023/03/18 03:20:17;;;;;;;5.03;3.33;;;8.30;99.90;;;;;;5013273;28;20542;-38
2023/03/18 03:22:42;;;;;;;5.60;3.63;;;8.20;99.90;;;;;;5012463;28;20198;-38
2023/03/18 03:25:10;;;;;;;5.83;3.77;;;8.30;99.90;;;;;;5029135;28;20186;-38
2023/03/18 03:27:36;;;;;;;4.03;3.40;;;8.20;99.90;;;;;;5012753;28;20174;-38
2023/03/18 03:30:08;;;;;;;4.53;3.17;;;8.10;99.90;;;;;;5029297;28;20178;-38
2023/03/18 03:32:34;;;;;;;5.67;3.33;;;8.20;99.90;;;;;;5029295;28;20202;-39
2023/03/18 03:35:00;;;;;;;5.87;3.53;;;8.10;99.90;;;;;;5029730;28;20190;-39
2023/03/18 03:37:26;;;;;;;7.33;3.80;;;8.10;99.90;;;;;;5013050;28;20228;-37
2023/03/18 03:39:53;;;;;;;6.17;3.77;;;8.00;99.90;;;;;;5029566;28;20189;-38
2023/03/18 03:42:19;;;;;;;4.10;3.13;;;8.00;99.90;;;;;;5030673;28;20195;-40
2023/03/18 03:44:45;;;;;;;5.23;3.70;;;7.90;99.90;;;;;;5022451;28;20217;-40
2023/03/18 03:47:11;;;;;;;5.63;3.30;;;7.90;99.90;;;;;;4996567;28;20178;-38
2023/03/18 03:49:37;;;;;;;3.90;3.37;;;7.90;99.90;;;;;;5028952;28;20167;-38
2023/03/18 03:52:04;;;;;;;3.73;3.27;;;8.00;99.90;;;;;;5028786;28;20201;-37
2023/03/18 03:54:31;;;;;;;3.93;3.03;;;8.00;99.90;;;;;;5012631;28;20237;-38
2023/03/18 03:56:59;;;;;;;4.00;3.07;;;7.90;99.90;;;;;;5012993;28;20170;-38
2023/03/18 03:59:27;;;;;;;6.23;2.90;;;7.90;99.90;;;;;;5012768;28;20174;-38
2023/03/18 04:02:14;;;;;;;4.03;2.80;;;7.90;99.90;;;;;;5007179;28;20206;-37
2023/03/18 04:04:40;;;;;;;4.30;3.33;;;7.80;99.90;;;;;;5023303;28;20194;-40
2023/03/18 04:07:13;;;;;;;5.07;3.87;;;7.80;99.90;;;;;;5028401;28;20213;-38
2023/03/18 04:09:39;;;;;;;6.10;3.20;;;7.70;99.90;;;;;;5012601;28;20198;-37
2023/03/18 04:12:07;;;;;;;4.97;3.70;;;7.60;99.90;;;;;;4996549;28;20218;-40
2023/03/18 04:14:33;;;;;;;6.80;3.63;;;7.60;99.90;;;;;;5005257;28;20213;-38
2023/03/18 04:16:59;;;;;;;4.87;3.67;;;7.50;99.90;;;;;;4993647;28;20182;-40
2023/03/18 04:19:27;;;;;;;6.57;3.30;;;7.50;99.90;;;;;;5009734;28;20210;-38
2023/03/18 04:21:55;;;;;;;5.87;3.43;;;7.40;99.90;;;;;;4996167;28;20203;-38
2023/03/18 04:24:22;;;;;;;5.20;3.33;;;7.50;99.90;;;;;;5012954;28;20285;-37
2023/03/18 04:26:49;;;;;;;9.70;3.60;;;7.40;99.90;;;;;;5028917;28;20185;-37
2023/03/18 04:29:15;;;;;;;7.57;4.50;;;7.30;99.90;;;;;;5012267;28;20225;-37
2023/03/18 04:31:41;;;;;;;7.13;3.80;;;7.10;99.90;;;;;;5028461;28;20193;-38
2023/03/18 04:34:08;;;;;;;9.17;3.97;;;7.00;99.90;;;;;;5013136;28;20308;-37
2023/03/18 04:36:35;;;;;;;5.33;3.87;;;6.90;99.90;;;;;;5015890;28;20201;-37
2023/03/18 04:39:01;;;;;;;6.00;4.50;;;7.00;99.90;;;;;;4999918;28;20182;-38
2023/03/18 04:41:27;;;;;;;5.40;3.90;;;7.00;99.90;;;;;;5015367;28;20228;-37
2023/03/18 04:43:56;;;;;;;7.67;3.70;;;6.90;99.90;;;;;;5009037;28;20188;-37
2023/03/18 04:46:30;;;;;;;6.97;4.07;;;7.00;99.90;;;;;;5015602;28;20254;-39
2023/03/18 04:48:57;;;;;;;6.03;4.07;;;6.90;99.90;;;;;;5015978;28;20230;-37
2023/03/18 04:51:24;;;;;;;4.80;3.80;;;6.80;99.90;;;;;;5032622;28;20211;-37
2023/03/18 04:53:50;;;;;;;5.43;3.93;;;6.80;99.90;;;;;;5031880;28;20241;-37
2023/03/18 04:56:17;;;;;;;5.57;3.83;;;6.90;99.90;;;;;;5015867;28;20186;-37
2023/03/18 04:58:48;;;;;;;4.57;3.33;;;6.90;99.90;;;;;;5015868;28;20296;-37
2023/03/18 05:01:19;;;;;;;5.23;3.50;;;7.00;99.90;;;;;;5028648;28;20194;-39
2023/03/18 05:03:45;;;;;;;6.73;3.40;;;7.00;99.90;;;;;;5015399;28;20527;-38
2023/03/18 05:06:26;;;;;;;4.90;3.60;;;6.90;99.90;;;;;;5015088;28;20187;-37
2023/03/18 05:08:59;;;;;;;4.70;3.30;;;6.90;99.90;;;;;;5015895;28;20251;-37
2023/03/18 05:11:28;;;;;;;4.13;3.27;;;6.90;99.90;;;;;;5015410;28;20209;-37
2023/03/18 05:13:56;;;;;;;4.83;3.17;;;6.90;99.90;;;;;;5024116;28;20210;-38
2023/03/18 05:16:24;;;;;;;6.90;3.80;;;6.90;99.90;;;;;;5008394;28;20185;-38
2023/03/18 05:18:51;;;;;;;5.37;3.37;;;6.90;99.90;;;;;;4998485;28;20212;-37
2023/03/18 05:21:17;;;;;;;6.60;3.37;;;6.80;99.90;;;;;;5015524;28;20209;-37
2023/03/18 05:23:43;;;;;;;7.17;3.37;;;6.80;99.90;;;;;;5031812;28;20192;-37
2023/03/18 05:26:10;;;;;;;5.00;3.53;;;6.80;99.90;;;;;;5015325;28;20193;-37
2023/03/18 05:28:38;;;;;;;5.73;3.10;;;6.70;99.90;;;;;;5014401;28;20188;-37
2023/03/18 05:31:25;;;;;;;4.80;2.97;;;6.50;99.90;;;;;;5014876;28;20259;-40
2023/03/18 05:33:51;;;;;;;5.23;3.33;;;6.40;99.90;;;;;;5012412;28;20299;-38
2023/03/18 05:36:18;;;;;;;4.70;2.90;;;6.30;99.90;;;;;;5009903;28;20177;-38
2023/03/18 05:38:56;;;;;;;3.73;2.83;;;6.40;99.90;;;;;;5024279;28;20181;-38
2023/03/18 05:41:23;;;;;;;4.10;3.00;;;6.40;99.90;;;;;;5030998;28;20254;-39
2023/03/18 05:43:49;;;;;;;3.97;2.87;;;6.40;99.90;;;;;;5030833;28;20192;-37
2023/03/18 05:46:16;;;;;;;4.50;2.70;;;6.20;99.90;;;;;;5025214;28;20184;-37
2023/03/18 05:49:07;;;;;;;4.73;3.03;;;6.20;99.90;;;;;;5015211;28;20188;-37
2023/03/18 05:51:43;;;;;;;4.00;3.10;;;6.30;99.90;;;;;;5014242;28;20226;-41
2023/03/18 05:54:15;;;;;;;5.77;2.93;;;6.20;99.90;;;;;;5014069;28;20207;-38
2023/03/18 05:56:44;;;;;;;3.30;2.90;;;6.30;99.90;;;;;;5032460;28;20180;-37
2023/03/18 05:59:13;;;;;;;6.57;3.10;;;6.30;99.90;;;;;;5015064;28;20177;-37
2023/03/18 06:01:45;;;;;;;5.07;3.10;;;6.30;99.90;;;;;;5014188;28;20204;-37
2023/03/18 06:04:11;;;;;;;6.20;3.57;;;6.30;99.90;;;;;;5013311;28;20184;-37
2023/03/18 06:06:39;;;;;;;8.53;5.73;;;6.30;99.90;;;;;;5032222;28;20179;-37
2023/03/18 06:09:10;;;;;;;6.17;4.83;;;6.30;99.90;;;;;;5010037;28;20665;-38
2023/03/18 06:11:41;;;;;;;7.13;4.57;;;6.30;99.90;;;;;;4985766;28;20220;-38
2023/03/18 06:14:07;;;;;;;7.33;4.77;;;6.20;99.90;;;;;;4988628;28;20239;-37
2023/03/18 06:16:34;;;;;;;4.67;3.93;;;6.20;99.90;;;;;;5028716;28;20180;-38
2023/03/18 06:19:01;;;;;;;5.57;3.40;;;6.10;99.90;;;;;;5016567;28;20310;-38
2023/03/18 06:21:27;;;;;;;9.80;3.67;;;6.10;99.90;;;;;;5016706;28;20196;-38
2023/03/18 06:23:53;;;;;;;5.17;3.50;;;6.10;99.90;;;;;;5019387;28;20183;-39
2023/03/18 06:26:20;;;;;;;6.27;4.30;;;6.10;99.90;;;;;;5103966;23;20246;-30
2023/03/18 06:28:48;;;;;;;11.17;5.50;;;6.10;99.90;;;;;;5088831;28;20270;-32
2023/03/18 06:31:16;;;;;;;8.83;5.10;;;6.10;99.90;;;;;;5086205;28;20178;-32
2023/03/18 06:33:44;;;;;;;22.43;7.27;;;6.20;99.90;;;;;;5089256;28;20201;-32
2023/03/18 06:36:15;;;;;;;20.77;7.07;;;6.20;99.90;;;;;;5106520;28;20189;-32
2023/03/18 06:38:45;;;;;;;25.57;9.00;;;6.20;99.90;;;;;;5105091;28;20183;-31
2023/03/18 06:41:12;;;;;;;10.47;5.40;;;6.30;99.90;;;;;;5106582;28;20269;-31
2023/03/18 06:43:46;;;;;;;9.17;5.60;;;6.40;99.90;;;;;;5071681;28;20187;-32
2023/03/18 06:46:13;;;;;;;8.70;5.10;;;6.40;99.90;;;;;;5105350;28;20207;-32
2023/03/18 06:48:42;;;;;;;11.03;5.20;;;6.40;99.90;;;;;;5090175;28;20181;-32
2023/03/18 06:51:11;;;;;;;8.50;5.77;;;6.50;99.90;;;;;;5090696;28;20201;-31
2023/03/18 06:53:40;;;;;;;6.77;5.43;;;6.60;99.90;;;;;;5089783;28;20225;-32
2023/03/18 06:56:08;;;;;;;5.90;4.43;;;6.60;99.90;;;;;;5083038;28;20652;-31
2023/03/18 06:58:48;;;;;;;4.87;3.97;;;6.70;99.90;;;;;;5087402;28;20186;-32
2023/03/18 07:01:14;;;;;;;5.47;3.50;;;6.70;99.90;;;;;;5090939;28;20269;-31
2023/03/18 07:03:43;;;;;;;4.20;3.80;;;6.80;99.90;;;;;;5091248;28;20178;-32
2023/03/18 07:06:11;;;;;;;6.17;3.10;;;7.00;99.90;;;;;;5108016;28;20209;-32
2023/03/18 07:08:38;;;;;;;5.10;3.30;;;7.10;99.90;;;;;;5089913;28;20171;-30
2023/03/18 07:11:06;;;;;;;5.17;3.10;;;7.10;99.90;;;;;;5090298;28;20187;-31
2023/03/18 07:13:33;;;;;;;4.47;3.00;;;7.20;99.90;;;;;;5089691;28;20193;-32
2023/03/18 07:16:00;;;;;;;4.70;3.10;;;7.30;99.90;;;;;;5089084;28;20231;-31
2023/03/18 07:18:26;;;;;;;4.83;3.10;;;7.50;99.90;;;;;;5100573;28;20717;-31
2023/03/18 07:20:53;;;;;;;6.40;3.37;;;7.60;99.90;;;;;;5091978;28;20213;-32
2023/03/18 07:23:21;;;;;;;6.57;3.20;;;7.70;99.90;;;;;;5072608;28;20269;-30
2023/03/18 07:25:49;;;;;;;7.63;4.07;;;7.80;99.90;;;;;;5106465;28;20211;-32
2023/03/18 07:28:15;;;;;;;9.53;4.70;;;7.90;99.90;;;;;;5099725;28;20188;-31
2023/03/18 07:30:41;;;;;;;7.10;5.10;;;8.10;99.90;;;;;;5092857;28;20188;-33
2023/03/18 07:33:07;;;;;;;7.33;4.70;;;8.20;99.90;;;;;;5088681;28;20200;-33
2023/03/18 07:35:33;;;;;;;7.97;4.57;;;8.40;99.90;;;;;;5089448;28;20227;-31
2023/03/18 07:37:59;;;;;;;13.60;9.20;;;8.50;99.90;;;;;;5107353;28;20230;-31
2023/03/18 07:40:25;;;;;;;11.97;7.03;;;8.60;99.90;;;;;;5091452;28;20246;-32
2023/03/18 07:42:52;;;;;;;12.20;7.47;;;8.80;99.90;;;;;;5090096;28;20176;-33
2023/03/18 07:45:18;;;;;;;7.20;4.70;;;8.90;99.90;;;;;;5106642;28;20204;-33
2023/03/18 07:47:44;;;;;;;7.77;4.50;;;9.00;99.90;;;;;;5090977;28;20234;-33
2023/03/18 07:50:11;;;;;;;6.07;4.07;;;9.20;99.90;;;;;;5090140;28;20185;-32
2023/03/18 07:52:37;;;;;;;6.57;4.37;;;9.30;99.90;;;;;;5073034;28;20271;-32
2023/03/18 07:55:03;;;;;;;5.50;4.17;;;9.40;99.90;;;;;;5106176;28;20246;-32
2023/03/18 07:57:29;;;;;;;5.90;3.87;;;9.60;99.90;;;;;;5089582;28;20256;-32
2023/03/18 07:59:55;;;;;;;7.03;3.40;;;9.80;99.90;;;;;;5089273;28;20268;-32
2023/03/18 08:02:22;;;;;;;4.43;3.10;;;9.80;99.90;;;;;;5081907;28;20188;-32
2023/03/18 08:04:48;;;;;;;7.07;2.93;;;9.90;99.90;;;;;;5085337;28;20203;-33
2023/03/18 08:07:14;;;;;;;4.43;3.23;;;10.00;99.90;;;;;;5095579;28;20181;-31
2023/03/18 08:09:40;;;;;;;4.63;3.67;;;10.20;99.90;;;;;;5091086;28;20180;-32
2023/03/18 08:12:07;;;;;;;5.50;3.23;;;10.40;99.90;;;;;;5100469;28;20185;-32
2023/03/18 08:14:33;;;;;;;6.27;3.40;;;10.50;99.90;;;;;;5091587;28;20208;-32
2023/03/18 08:16:59;;;;;;;7.00;3.03;;;10.70;99.90;;;;;;5093192;28;20194;-33
2023/03/18 08:19:26;;;;;;;6.67;3.00;;;10.80;99.90;;;;;;5084177;28;20218;-33
2023/03/18 08:21:51;;;;;;;3.83;2.50;;;11.00;99.90;;;;;;5100475;28;20177;-33
2023/03/18 08:24:17;;;;;;;6.70;2.70;;;11.10;99.90;;;;;;5092336;28;20177;-33
2023/03/18 08:26:43;;;;;;;3.50;2.70;;;11.20;99.90;;;;;;5093021;28;20284;-32
2023/03/18 08:29:09;;;;;;;6.80;3.03;;;11.40;99.90;;;;;;5108462;28;20615;-33
2023/03/18 08:31:37;;;;;;;3.20;2.60;;;11.60;99.90;;;;;;5083661;28;20184;-33
2023/03/18 08:34:03;;;;;;;3.43;2.60;;;11.70;99.90;;;;;;5103623;28;20196;-33
2023/03/18 08:36:29;;;;;;;3.80;2.53;;;11.80;99.90;;;;;;5117379;27;20283;-33
2023/03/18 08:38:55;;;;;;;2.87;2.10;;;12.00;99.90;;;;;;5088815;28;20186;-33
2023/03/18 08:41:24;;;;;;;2.60;1.90;;;12.20;99.90;;;;;;5090259;28;20181;-32
2023/03/18 08:43:51;;;;;;;4.23;2.17;;;12.40;99.90;;;;;;5092926;28;20176;-34
2023/03/18 08:46:17;;;;;;;3.33;2.10;;;12.60;99.90;;;;;;5091220;28;20273;-32
2023/03/18 08:48:43;;;;;;;2.03;1.70;;;12.80;99.90;;;;;;5093399;28;20189;-33
2023/03/18 08:51:09;;;;;;;2.83;1.90;;;12.90;99.90;;;;;;5093378;28;20196;-33
2023/03/18 08:53:36;;;;;;;3.70;2.23;;;13.10;99.90;;;;;;5076919;28;20208;-32
2023/03/18 08:56:04;;;;;;;4.00;2.03;;;13.30;99.90;;;;;;5094389;28;20200;-32
2023/03/18 08:58:30;;;;;;;3.70;2.00;;;13.40;99.90;;;;;;5120095;27;20174;-34
2023/03/18 09:00:57;;;;;;;5.77;2.20;;;13.50;99.90;;;;;;5104317;28;20188;-33
2023/03/18 09:03:25;;;;;;;4.67;2.20;;;13.70;99.90;;;;;;5118556;27;20180;-33
2023/03/18 09:05:52;;;;;;;5.40;1.93;;;13.70;99.90;;;;;;5118019;27;20750;-32
2023/03/18 09:08:18;;;;;;;4.80;2.30;;;13.90;99.90;;;;;;5102012;28;20280;-33
2023/03/18 09:10:45;;;;;;;3.27;2.23;;;14.00;99.90;;;;;;5117601;27;20183;-32
2023/03/18 09:13:11;;;;;;;3.23;1.80;;;13.90;99.90;;;;;;5102850;28;20672;-32
2023/03/18 09:15:37;;;;;;;5.37;2.20;;;14.10;99.90;;;;;;5084134;28;20561;-32
2023/03/18 09:18:04;;;;;;;2.87;1.70;;;14.30;99.90;;;;;;5120409;27;20719;-32
2023/03/18 09:20:32;;;;;;;3.23;2.17;;;14.50;99.90;;;;;;5094748;28;20189;-32
2023/03/18 09:22:58;;;;;;;7.23;2.70;;;14.60;99.90;;;;;;5102231;28;20180;-32
2023/03/18 09:25:24;;;;;;;6.47;2.50;;;14.80;99.90;;;;;;5101924;28;20212;-32
2023/03/18 09:27:50;;;;;;;4.57;2.40;;;14.80;99.90;;;;;;5112218;27;20180;-32
2023/03/18 09:30:16;;;;;;;3.30;2.50;;;14.90;99.90;;;;;;5093531;28;20185;-32
2023/03/18 09:32:42;;;;;;;5.37;2.43;;;15.00;99.90;;;;;;5092398;28;20185;-33
2023/03/18 09:35:09;;;;;;;4.03;2.00;;;15.10;99.90;;;;;;5109054;28;20238;-33
2023/03/18 09:37:36;;;;;;;2.33;1.80;;;15.20;99.90;;;;;;5092129;28;20177;-32
2023/03/18 09:40:03;;;;;;;2.93;2.00;;;15.30;99.90;;;;;;5092023;28;20284;-32
2023/03/18 09:43:13;;;;;;;2.27;1.50;;;15.40;99.90;;;;;;5108098;28;20199;-32
2023/03/18 09:45:53;;;;;;;4.33;1.80;;;15.40;99.90;;;;;;5089336;28;20196;-33
2023/03/18 09:48:41;;;;;;;4.30;2.03;;;15.50;99.90;;;;;;5068697;28;20180;-32
2023/03/18 09:51:27;;;;;;;2.87;1.53;;;15.60;99.90;;;;;;5090278;28;20179;-33
2023/03/18 09:54:07;;;;;;;3.87;1.60;;;15.70;99.90;;;;;;5089684;28;20227;-33
2023/03/18 09:56:35;;;;;;;3.77;1.57;;;15.80;99.90;;;;;;5090071;28;20196;-32
2023/03/18 09:59:25;;;;;;;3.57;1.60;;;15.80;99.90;;;;;;5108559;28;20215;-33
2023/03/18 10:01:56;;;;;;;2.90;1.40;;;15.90;99.90;;;;;;5092531;28;20177;-33
2023/03/18 10:04:40;;;;;;;2.57;1.40;;;15.90;99.90;;;;;;5088325;28;20180;-33
2023/03/18 10:07:13;;;;;;;2.97;1.60;;;16.00;99.90;;;;;;5090256;28;20169;-33
2023/03/18 10:09:43;;;;;;;1.63;1.40;;;16.10;99.90;;;;;;5089082;28;20168;-33
2023/03/18 10:12:29;;;;;;;5.00;1.63;;;16.20;99.90;;;;;;5091644;28;20180;-33
2023/03/18 10:15:17;;;;;;;4.63;1.80;;;16.30;99.90;;;;;;5074085;28;20200;-33
2023/03/18 10:17:50;;;;;;;1.93;1.53;;;16.30;99.90;;;;;;5109487;28;20180;-33
2023/03/18 10:20:47;;;;;;;4.13;1.50;;;16.40;99.90;;;;;;5090610;28;20161;-32
2023/03/18 10:23:29;;;;;;;3.50;1.40;;;16.50;99.90;;;;;;5106536;28;20176;-33
2023/03/18 10:26:32;;;;;;;3.47;1.37;;;16.60;99.90;;;;;;5091822;28;20714;-33
2023/03/18 10:29:05;;;;;;;3.17;1.30;;;16.70;99.90;;;;;;5051085;28;20273;-33
2023/03/18 10:31:43;;;;;;;7.93;1.55;;;16.80;99.90;;;;;;5106408;28;20180;-33
2023/03/18 10:34:14;;;;;;;1.90;1.33;;;16.90;99.90;;;;;;5084273;28;20290;-33
2023/03/18 10:37:02;;;;;;;3.25;1.20;;;17.00;99.90;;;;;;5099465;28;20181;-34
2023/03/18 10:39:29;;;;;;;2.95;1.40;;;16.90;99.90;;;;;;5099181;28;20230;-34
2023/03/18 10:42:00;;;;;;;1.52;1.00;;;16.90;99.90;;;;;;5087197;28;20267;-33
2023/03/18 10:44:37;;;;;;;2.47;1.30;;;16.90;99.90;;;;;;5095541;28;20183;-33
2023/03/18 10:47:23;;;;;;;4.45;1.52;;;16.90;99.90;;;;;;5115896;27;20180;-34
2023/03/18 10:50:12;;;;;;;3.55;1.10;;;17.00;99.90;;;;;;5117449;27;20184;-35
2023/03/18 10:52:49;;;;;;;3.10;1.30;;;17.10;99.90;;;;;;5109233;28;20183;-35
2023/03/18 10:55:19;;;;;;;2.90;1.27;;;17.20;99.90;;;;;;5117659;27;20280;-34
2023/03/18 10:57:45;;;;;;;2.83;1.20;;;17.30;99.90;;;;;;5119412;27;20275;-34
2023/03/18 11:00:32;;;;;;;1.92;1.20;;;17.40;99.90;;;;;;5104758;28;20275;-34
2023/03/18 11:03:00;;;;;;;2.47;0.90;;;17.60;99.90;;;;;;5114876;27;20268;-34
2023/03/18 11:05:36;;;;;;;2.38;1.63;;;17.60;99.90;;;;;;5099683;28;20194;-34
2023/03/18 11:08:06;;;;;;;18.40;14.68;;;17.60;99.90;;;;;;5115433;27;20179;-34
2023/03/18 11:10:35;;;;;;;1.95;1.70;;;17.80;99.90;;;;;;5096662;28;20195;-34
2023/03/18 11:13:02;;;;;;;3.38;1.42;;;17.80;99.90;;;;;;5089872;28;20283;-35
2023/03/18 11:15:36;;;;;;;2.85;1.30;;;17.90;99.90;;;;;;5105924;28;20192;-34
2023/03/18 11:18:02;;;;;;;3.17;1.27;;;18.10;99.90;;;;;;5089829;28;20179;-33
2023/03/18 11:20:46;;;;;;;2.53;1.48;;;18.10;99.90;;;;;;5088948;28;20177;-34
2023/03/18 11:23:18;;;;;;;2.70;1.00;;;18.10;99.90;;;;;;5085447;28;20186;-34
2023/03/18 11:25:51;;;;;;;3.25;1.30;;;18.10;99.90;;;;;;5090217;28;20215;-34
2023/03/18 11:28:21;;;;;;;3.50;1.08;;;18.20;99.90;;;;;;5114075;27;20191;-33
2023/03/18 11:30:53;;;;;;;3.58;1.40;;;18.20;99.90;;;;;;5106494;28;20176;-33
2023/03/18 11:33:23;;;;;;;1.88;1.10;;;18.30;99.90;;;;;;5106994;28;20294;-33
2023/03/18 11:35:56;;;;;;;2.33;1.00;;;18.30;99.90;;;;;;5106549;28;20197;-31
2023/03/18 11:38:28;;;;;;;1.90;1.10;;;18.50;99.90;;;;;;5087204;28;20172;-34
2023/03/18 11:41:18;;;;;;;2.92;1.10;;;18.60;99.90;;;;;;5074866;28;20168;-33
2023/03/18 11:43:55;;;;;;;2.13;1.05;;;18.60;99.90;;;;;;5105602;28;20180;-34
2023/03/18 11:46:24;;;;;;;2.33;1.00;;;18.80;99.90;;;;;;5094503;28;20207;-32
2023/03/18 11:48:51;;;;;;;1.35;1.00;;;18.90;99.90;;;;;;5093825;28;20179;-33
2023/03/18 11:51:41;;;;;;;2.38;1.10;;;19.00;99.90;;;;;;5113749;28;20180;-33
2023/03/18 11:54:20;;;;;;;2.15;1.30;;;19.00;99.90;;;;;;5122876;27;20249;-33
2023/03/18 11:56:47;;;;;;;1.58;1.27;;;19.00;99.90;;;;;;5093997;28;20200;-33
2023/03/18 11:59:39;;;;;;;3.03;1.13;;;19.10;99.90;;;;;;5094730;28;20180;-34
2023/03/18 12:02:37;;;;;;;2.25;1.00;;;19.30;99.90;;;;;;5093608;28;20176;-33
2023/03/18 12:05:25;;;;;;;3.33;1.25;;;19.50;99.90;;;;;;5041502;28;20216;-33
2023/03/18 12:07:56;;;;;;;2.47;1.00;;;19.50;99.90;;;;;;5073400;28;20181;-33
2023/03/18 12:10:35;;;;;;;3.05;1.15;;;19.60;99.90;;;;;;5089604;28;20184;-33
2023/03/18 12:13:00;;;;;;;2.15;1.00;;;19.70;99.50;;;;;;5105605;28;20203;-32
2023/03/18 12:15:41;;;;;;;2.75;1.10;;;19.80;99.20;;;;;;5095804;28;20192;-33
2023/03/18 12:18:07;;;;;;;1.90;1.27;;;19.80;97.30;;;;;;5097271;28;20253;-34
2023/03/18 12:20:49;;;;;;;3.03;1.30;;;19.90;99.10;;;;;;5091665;28;20240;-31
2023/03/18 12:23:46;;;;;;;1.95;1.00;;;20.10;99.10;;;;;;5089122;28;20199;-34
2023/03/18 12:26:32;;;;;;;2.15;1.15;;;20.10;97.80;;;;;;5139930;22;20224;-36
2023/03/18 12:29:01;;;;;;;3.13;1.00;;;20.30;97.90;;;;;;5075316;28;20173;-35
2023/03/18 12:31:49;;;;;;;1.77;1.00;;;20.30;96.00;;;;;;5093319;28;20243;-38
2023/03/18 12:34:36;;;;;;;1.40;1.05;;;20.10;96.70;;;;;;5096004;28;20346;-36
2023/03/18 12:37:31;;;;;;;1.30;0.90;;;20.30;97.40;;;;;;5075546;28;20189;-37
2023/03/18 12:40:18;;;;;;;1.88;1.00;;;20.50;96.90;;;;;;5078306;28;20256;-41
2023/03/18 12:43:07;;;;;;;2.42;0.93;;;20.60;97.80;;;;;;5076569;28;20177;-37
2023/03/18 12:45:48;;;;;;;3.00;1.00;;;20.80;97.40;;;;;;5092242;28;20688;-36
2023/03/18 12:48:31;;;;;;;1.98;1.13;;;20.90;96.50;;;;;;5076830;28;20169;-39
2023/03/18 12:51:12;;;;;;;2.58;1.00;;;21.00;96.20;;;;;;5069324;28;20185;-38
2023/03/18 12:53:47;;;;;;;1.00;0.90;;;21.00;96.00;;;;;;5064982;28;20201;-39
2023/03/18 12:56:20;;;;;;;2.20;1.00;;;21.10;96.40;;;;;;5071687;28;20216;-38
2023/03/18 12:59:02;;;;;;;2.95;0.80;;;21.10;95.40;;;;;;5072464;28;20183;-41
2023/03/18 13:01:44;;;;;;;2.28;1.00;;;21.30;96.30;;;;;;5072861;28;20230;-40
2023/03/18 13:04:21;;;;;;;2.47;1.15;;;21.20;95.00;;;;;;5072320;28;20181;-36
2023/03/18 13:07:02;;;;;;;2.25;1.10;;;20.70;93.00;;;;;;5071592;28;20239;-42
2023/03/18 13:09:39;;;;;;;2.25;0.90;;;20.30;93.40;;;;;;5072419;28;20220;-37
2023/03/18 13:12:25;;;;;;;2.75;1.30;;;20.50;95.10;;;;;;5073806;28;20191;-38